sensor_id;sensor_type;location;lat;lon;timestamp;P1;durP1;ratioP1;P2;durP2;ratioP2
12798;SDS011;19250;42.646;26.980;2022-12-18T00:02:21;0.10;;;0.10;;
12798;SDS011;19250;42.646;26.980;2022-12-18T00:04:48;0.17;;;0.17;;
12798;SDS011;19250;42.646;26.980;2022-12-18T00:07:16;0.30;;;0.30;;
12798;SDS011;19250;42.646;26.980;2022-12-18T00:09:43;0.10;;;0.10;;
12798;SDS011;19250;42.646;26.980;2022-12-18T00:12:10;0.10;;;0.10;;
12798;SDS011;19250;42.646;26.980;2022-12-18T00:14:37;5.75;;;4.45;;
12798;SDS011;19250;42.646;26.980;2022-12-18T00:17:05;5.53;;;4.72;;
12798;SDS011;19250;42.646;26.980;2022-12-18T00:19:33;6.97;;;5.03;;
12798;SDS011;19250;42.646;26.980;2022-12-18T00:22:00;6.60;;;5.28;;
12798;SDS011;19250;42.646;26.980;2022-12-18T00:24:28;7.63;;;5.78;;
12798;SDS011;19250;42.646;26.980;2022-12-18T00:26:55;6.75;;;5.70;;
12798;SDS011;19250;42.646;26.980;2022-12-18T00:29:22;7.70;;;6.07;;
12798;SDS011;19250;42.646;26.980;2022-12-18T00:31:49;6.80;;;6.10;;
12798;SDS011;19250;42.646;26.980;2022-12-18T00:34:17;7.13;;;6.15;;
12798;SDS011;19250;42.646;26.980;2022-12-18T00:36:46;7.57;;;5.80;;
12798;SDS011;19250;42.646;26.980;2022-12-18T00:39:14;11.17;;;8.63;;
12798;SDS011;19250;42.646;26.980;2022-12-18T00:41:41;9.68;;;8.65;;
12798;SDS011;19250;42.646;26.980;2022-12-18T00:44:26;9.48;;;6.45;;
12798;SDS011;19250;42.646;26.980;2022-12-18T00:46:53;7.63;;;5.65;;
12798;SDS011;19250;42.646;26.980;2022-12-18T00:49:20;6.82;;;4.95;;
12798;SDS011;19250;42.646;26.980;2022-12-18T00:51:49;5.67;;;4.50;;
12798;SDS011;19250;42.646;26.980;2022-12-18T00:54:17;6.15;;;4.90;;
12798;SDS011;19250;42.646;26.980;2022-12-18T00:56:44;6.28;;;5.68;;
12798;SDS011;19250;42.646;26.980;2022-12-18T00:59:12;6.28;;;4.43;;
12798;SDS011;19250;42.646;26.980;2022-12-18T01:01:39;4.75;;;4.20;;
12798;SDS011;19250;42.646;26.980;2022-12-18T01:04:06;6.65;;;5.90;;
12798;SDS011;19250;42.646;26.980;2022-12-18T01:06:33;6.63;;;5.82;;
12798;SDS011;19250;42.646;26.980;2022-12-18T01:09:02;6.07;;;4.90;;
12798;SDS011;19250;42.646;26.980;2022-12-18T01:11:30;7.18;;;5.97;;
12798;SDS011;19250;42.646;26.980;2022-12-18T01:14:00;8.03;;;5.83;;
12798;SDS011;19250;42.646;26.980;2022-12-18T01:16:27;6.40;;;5.55;;
12798;SDS011;19250;42.646;26.980;2022-12-18T01:18:54;5.68;;;4.75;;
12798;SDS011;19250;42.646;26.980;2022-12-18T01:21:22;4.90;;;4.40;;
12798;SDS011;19250;42.646;26.980;2022-12-18T01:23:53;5.60;;;4.18;;
12798;SDS011;19250;42.646;26.980;2022-12-18T01:26:23;6.03;;;4.97;;
12798;SDS011;19250;42.646;26.980;2022-12-18T01:28:53;5.75;;;5.15;;
12798;SDS011;19250;42.646;26.980;2022-12-18T01:31:22;6.10;;;4.75;;
12798;SDS011;19250;42.646;26.980;2022-12-18T01:33:50;5.65;;;5.22;;
12798;SDS011;19250;42.646;26.980;2022-12-18T01:36:19;5.80;;;5.22;;
12798;SDS011;19250;42.646;26.980;2022-12-18T01:38:48;9.93;;;8.98;;
12798;SDS011;19250;42.646;26.980;2022-12-18T01:41:16;8.10;;;7.40;;
12798;SDS011;19250;42.646;26.980;2022-12-18T01:43:50;6.55;;;5.95;;
12798;SDS011;19250;42.646;26.980;2022-12-18T01:46:20;7.47;;;6.78;;
12798;SDS011;19250;42.646;26.980;2022-12-18T01:48:51;5.80;;;5.30;;
12798;SDS011;19250;42.646;26.980;2022-12-18T01:51:21;7.35;;;5.50;;
12798;SDS011;19250;42.646;26.980;2022-12-18T01:53:49;5.25;;;4.75;;
12798;SDS011;19250;42.646;26.980;2022-12-18T01:56:17;5.95;;;4.90;;
12798;SDS011;19250;42.646;26.980;2022-12-18T01:58:54;6.00;;;5.28;;
12798;SDS011;19250;42.646;26.980;2022-12-18T02:01:26;5.95;;;5.00;;
12798;SDS011;19250;42.646;26.980;2022-12-18T02:03:55;5.20;;;4.75;;
12798;SDS011;19250;42.646;26.980;2022-12-18T02:06:40;9.30;;;7.05;;
12798;SDS011;19250;42.646;26.980;2022-12-18T02:09:09;8.25;;;6.50;;
12798;SDS011;19250;42.646;26.980;2022-12-18T02:11:44;5.95;;;5.35;;
12798;SDS011;19250;42.646;26.980;2022-12-18T02:14:23;7.30;;;6.38;;
12798;SDS011;19250;42.646;26.980;2022-12-18T02:16:59;9.03;;;7.67;;
12798;SDS011;19250;42.646;26.980;2022-12-18T02:19:39;9.20;;;8.13;;
12798;SDS011;19250;42.646;26.980;2022-12-18T02:22:21;6.47;;;5.88;;
12798;SDS011;19250;42.646;26.980;2022-12-18T02:24:58;5.82;;;5.25;;
12798;SDS011;19250;42.646;26.980;2022-12-18T02:27:34;6.40;;;5.47;;
12798;SDS011;19250;42.646;26.980;2022-12-18T02:30:05;5.05;;;4.40;;
12798;SDS011;19250;42.646;26.980;2022-12-18T02:32:34;4.85;;;4.38;;
12798;SDS011;19250;42.646;26.980;2022-12-18T02:35:06;4.78;;;4.28;;
12798;SDS011;19250;42.646;26.980;2022-12-18T02:37:39;4.70;;;4.20;;
12798;SDS011;19250;42.646;26.980;2022-12-18T02:40:09;5.03;;;4.30;;
12798;SDS011;19250;42.646;26.980;2022-12-18T02:42:39;4.55;;;4.05;;
12798;SDS011;19250;42.646;26.980;2022-12-18T02:45:07;4.45;;;4.00;;
12798;SDS011;19250;42.646;26.980;2022-12-18T02:47:36;4.97;;;4.47;;
12798;SDS011;19250;42.646;26.980;2022-12-18T02:50:07;5.90;;;5.03;;
12798;SDS011;19250;42.646;26.980;2022-12-18T02:52:41;11.40;;;10.20;;
12798;SDS011;19250;42.646;26.980;2022-12-18T02:55:20;7.43;;;6.00;;
12798;SDS011;19250;42.646;26.980;2022-12-18T02:58:02;4.97;;;4.38;;
12798;SDS011;19250;42.646;26.980;2022-12-18T03:00:33;5.28;;;4.60;;
12798;SDS011;19250;42.646;26.980;2022-12-18T03:03:05;5.72;;;5.13;;
12798;SDS011;19250;42.646;26.980;2022-12-18T03:05:38;4.60;;;4.20;;
12798;SDS011;19250;42.646;26.980;2022-12-18T03:08:10;5.32;;;4.82;;
12798;SDS011;19250;42.646;26.980;2022-12-18T03:10:43;35.23;;;22.27;;
12798;SDS011;19250;42.646;26.980;2022-12-18T03:13:18;13.50;;;9.23;;
12798;SDS011;19250;42.646;26.980;2022-12-18T03:15:51;10.10;;;8.48;;
12798;SDS011;19250;42.646;26.980;2022-12-18T03:18:23;14.65;;;10.18;;
12798;SDS011;19250;42.646;26.980;2022-12-18T03:20:56;14.48;;;9.90;;
12798;SDS011;19250;42.646;26.980;2022-12-18T03:23:28;8.73;;;7.82;;
12798;SDS011;19250;42.646;26.980;2022-12-18T03:25:59;10.93;;;9.82;;
12798;SDS011;19250;42.646;26.980;2022-12-18T03:28:30;11.20;;;10.10;;
12798;SDS011;19250;42.646;26.980;2022-12-18T03:31:02;12.27;;;10.98;;
12798;SDS011;19250;42.646;26.980;2022-12-18T03:33:36;10.27;;;9.23;;
12798;SDS011;19250;42.646;26.980;2022-12-18T03:36:09;6.80;;;6.05;;
12798;SDS011;19250;42.646;26.980;2022-12-18T03:38:36;8.45;;;7.57;;
12798;SDS011;19250;42.646;26.980;2022-12-18T03:41:05;8.95;;;8.05;;
12798;SDS011;19250;42.646;26.980;2022-12-18T03:43:42;8.32;;;7.43;;
12798;SDS011;19250;42.646;26.980;2022-12-18T03:46:15;8.10;;;7.30;;
12798;SDS011;19250;42.646;26.980;2022-12-18T03:48:52;9.70;;;8.70;;
12798;SDS011;19250;42.646;26.980;2022-12-18T03:51:26;7.80;;;7.00;;
12798;SDS011;19250;42.646;26.980;2022-12-18T03:54:02;7.45;;;6.68;;
12798;SDS011;19250;42.646;26.980;2022-12-18T03:56:32;6.30;;;5.70;;
12798;SDS011;19250;42.646;26.980;2022-12-18T03:59:05;7.22;;;6.32;;
12798;SDS011;19250;42.646;26.980;2022-12-18T04:01:35;5.85;;;5.18;;
12798;SDS011;19250;42.646;26.980;2022-12-18T04:04:05;4.68;;;3.60;;
12798;SDS011;19250;42.646;26.980;2022-12-18T04:06:34;6.88;;;6.18;;
12798;SDS011;19250;42.646;26.980;2022-12-18T04:09:03;7.00;;;5.63;;
12798;SDS011;19250;42.646;26.980;2022-12-18T04:11:31;5.80;;;4.80;;
12798;SDS011;19250;42.646;26.980;2022-12-18T04:13:58;6.47;;;5.78;;
12798;SDS011;19250;42.646;26.980;2022-12-18T04:16:27;10.65;;;8.32;;
12798;SDS011;19250;42.646;26.980;2022-12-18T04:18:54;9.00;;;7.28;;
12798;SDS011;19250;42.646;26.980;2022-12-18T04:21:22;9.35;;;8.55;;
12798;SDS011;19250;42.646;26.980;2022-12-18T04:23:49;5.63;;;5.13;;
12798;SDS011;19250;42.646;26.980;2022-12-18T04:26:16;5.65;;;5.15;;
12798;SDS011;19250;42.646;26.980;2022-12-18T04:28:43;6.60;;;5.90;;
12798;SDS011;19250;42.646;26.980;2022-12-18T04:31:11;7.32;;;6.63;;
12798;SDS011;19250;42.646;26.980;2022-12-18T04:33:39;11.73;;;10.32;;
12798;SDS011;19250;42.646;26.980;2022-12-18T04:36:07;14.65;;;13.05;;
12798;SDS011;19250;42.646;26.980;2022-12-18T04:38:34;17.50;;;15.70;;
12798;SDS011;19250;42.646;26.980;2022-12-18T04:41:01;9.90;;;8.90;;
12798;SDS011;19250;42.646;26.980;2022-12-18T04:43:29;14.77;;;13.48;;
12798;SDS011;19250;42.646;26.980;2022-12-18T04:46:01;8.60;;;7.70;;
12798;SDS011;19250;42.646;26.980;2022-12-18T04:48:29;9.75;;;8.73;;
12798;SDS011;19250;42.646;26.980;2022-12-18T04:50:57;7.97;;;7.20;;
12798;SDS011;19250;42.646;26.980;2022-12-18T04:53:25;12.13;;;10.88;;
12798;SDS011;19250;42.646;26.980;2022-12-18T04:56:01;31.98;;;28.90;;
12798;SDS011;19250;42.646;26.980;2022-12-18T04:58:30;8.43;;;7.43;;
12798;SDS011;19250;42.646;26.980;2022-12-18T05:00:57;6.35;;;5.72;;
12798;SDS011;19250;42.646;26.980;2022-12-18T05:03:24;8.20;;;7.43;;
12798;SDS011;19250;42.646;26.980;2022-12-18T05:05:52;8.52;;;7.78;;
12798;SDS011;19250;42.646;26.980;2022-12-18T05:08:21;7.22;;;6.53;;
12798;SDS011;19250;42.646;26.980;2022-12-18T05:10:48;8.75;;;7.93;;
12798;SDS011;19250;42.646;26.980;2022-12-18T05:13:15;11.27;;;9.27;;
12798;SDS011;19250;42.646;26.980;2022-12-18T05:15:42;8.93;;;8.02;;
12798;SDS011;19250;42.646;26.980;2022-12-18T05:18:18;13.63;;;12.13;;
12798;SDS011;19250;42.646;26.980;2022-12-18T05:20:45;12.87;;;10.90;;
12798;SDS011;19250;42.646;26.980;2022-12-18T05:23:13;10.15;;;9.05;;
12798;SDS011;19250;42.646;26.980;2022-12-18T05:25:41;10.95;;;9.73;;
12798;SDS011;19250;42.646;26.980;2022-12-18T05:28:08;12.13;;;10.98;;
12798;SDS011;19250;42.646;26.980;2022-12-18T05:30:36;9.25;;;8.35;;
12798;SDS011;19250;42.646;26.980;2022-12-18T05:33:03;10.63;;;9.02;;
12798;SDS011;19250;42.646;26.980;2022-12-18T05:35:30;9.07;;;8.10;;
12798;SDS011;19250;42.646;26.980;2022-12-18T05:37:57;10.88;;;9.70;;
12798;SDS011;19250;42.646;26.980;2022-12-18T05:40:24;10.10;;;7.95;;
12798;SDS011;19250;42.646;26.980;2022-12-18T05:42:53;9.75;;;8.75;;
12798;SDS011;19250;42.646;26.980;2022-12-18T05:45:20;8.20;;;7.40;;
12798;SDS011;19250;42.646;26.980;2022-12-18T05:47:48;7.03;;;6.30;;
12798;SDS011;19250;42.646;26.980;2022-12-18T05:50:15;12.50;;;10.35;;
12798;SDS011;19250;42.646;26.980;2022-12-18T05:52:42;11.32;;;9.82;;
12798;SDS011;19250;42.646;26.980;2022-12-18T05:55:09;11.40;;;9.45;;
12798;SDS011;19250;42.646;26.980;2022-12-18T05:57:37;8.93;;;8.02;;
12798;SDS011;19250;42.646;26.980;2022-12-18T06:00:06;10.23;;;8.70;;
12798;SDS011;19250;42.646;26.980;2022-12-18T06:02:34;8.50;;;7.75;;
12798;SDS011;19250;42.646;26.980;2022-12-18T06:05:02;9.02;;;7.97;;
12798;SDS011;19250;42.646;26.980;2022-12-18T06:07:29;7.97;;;7.10;;
12798;SDS011;19250;42.646;26.980;2022-12-18T06:09:56;9.10;;;8.20;;
12798;SDS011;19250;42.646;26.980;2022-12-18T06:12:23;12.77;;;11.52;;
12798;SDS011;19250;42.646;26.980;2022-12-18T06:14:51;22.42;;;20.30;;
12798;SDS011;19250;42.646;26.980;2022-12-18T06:17:20;17.92;;;16.20;;
12798;SDS011;19250;42.646;26.980;2022-12-18T06:19:47;19.27;;;17.30;;
12798;SDS011;19250;42.646;26.980;2022-12-18T06:22:14;18.33;;;16.42;;
12798;SDS011;19250;42.646;26.980;2022-12-18T06:24:42;11.50;;;10.45;;
12798;SDS011;19250;42.646;26.980;2022-12-18T06:27:09;15.05;;;13.65;;
12798;SDS011;19250;42.646;26.980;2022-12-18T06:29:37;13.80;;;12.30;;
12798;SDS011;19250;42.646;26.980;2022-12-18T06:32:04;9.85;;;8.60;;
12798;SDS011;19250;42.646;26.980;2022-12-18T06:34:33;12.27;;;10.52;;
12798;SDS011;19250;42.646;26.980;2022-12-18T06:37:01;13.15;;;11.77;;
12798;SDS011;19250;42.646;26.980;2022-12-18T06:39:28;19.03;;;17.13;;
12798;SDS011;19250;42.646;26.980;2022-12-18T06:41:55;17.17;;;15.38;;
12798;SDS011;19250;42.646;26.980;2022-12-18T06:44:23;14.32;;;12.82;;
12798;SDS011;19250;42.646;26.980;2022-12-18T06:46:50;13.70;;;11.73;;
12798;SDS011;19250;42.646;26.980;2022-12-18T06:49:17;10.77;;;9.27;;
12798;SDS011;19250;42.646;26.980;2022-12-18T06:51:46;21.88;;;17.05;;
12798;SDS011;19250;42.646;26.980;2022-12-18T06:54:13;18.70;;;14.60;;
12798;SDS011;19250;42.646;26.980;2022-12-18T06:56:41;15.90;;;11.82;;
12798;SDS011;19250;42.646;26.980;2022-12-18T06:59:08;14.23;;;12.07;;
12798;SDS011;19250;42.646;26.980;2022-12-18T07:01:35;17.08;;;13.90;;
12798;SDS011;19250;42.646;26.980;2022-12-18T07:04:02;123.68;;;82.70;;
12798;SDS011;19250;42.646;26.980;2022-12-18T07:06:30;20.95;;;16.67;;
12798;SDS011;19250;42.646;26.980;2022-12-18T07:08:58;14.98;;;13.25;;
12798;SDS011;19250;42.646;26.980;2022-12-18T07:11:26;18.50;;;15.73;;
12798;SDS011;19250;42.646;26.980;2022-12-18T07:13:53;20.60;;;18.40;;
12798;SDS011;19250;42.646;26.980;2022-12-18T07:16:21;32.07;;;28.90;;
12798;SDS011;19250;42.646;26.980;2022-12-18T07:18:48;33.40;;;29.85;;
12798;SDS011;19250;42.646;26.980;2022-12-18T07:21:15;31.77;;;25.20;;
12798;SDS011;19250;42.646;26.980;2022-12-18T07:23:44;34.43;;;30.83;;
12798;SDS011;19250;42.646;26.980;2022-12-18T07:26:15;20.25;;;17.50;;
12798;SDS011;19250;42.646;26.980;2022-12-18T07:28:43;24.27;;;21.65;;
12798;SDS011;19250;42.646;26.980;2022-12-18T07:31:12;24.35;;;20.33;;
12798;SDS011;19250;42.646;26.980;2022-12-18T07:33:41;19.90;;;17.80;;
12798;SDS011;19250;42.646;26.980;2022-12-18T07:36:08;18.67;;;16.42;;
12798;SDS011;19250;42.646;26.980;2022-12-18T07:38:37;25.42;;;21.40;;
12798;SDS011;19250;42.646;26.980;2022-12-18T07:41:04;31.63;;;28.02;;
12798;SDS011;19250;42.646;26.980;2022-12-18T07:43:34;28.55;;;21.25;;
12798;SDS011;19250;42.646;26.980;2022-12-18T07:46:02;28.27;;;23.58;;
12798;SDS011;19250;42.646;26.980;2022-12-18T07:48:29;121.38;;;77.35;;
12798;SDS011;19250;42.646;26.980;2022-12-18T07:50:58;126.78;;;79.00;;
12798;SDS011;19250;42.646;26.980;2022-12-18T07:53:25;313.38;;;226.13;;
12798;SDS011;19250;42.646;26.980;2022-12-18T07:55:54;469.10;;;417.83;;
12798;SDS011;19250;42.646;26.980;2022-12-18T07:58:23;91.10;;;79.38;;
12798;SDS011;19250;42.646;26.980;2022-12-18T08:00:51;41.13;;;31.70;;
12798;SDS011;19250;42.646;26.980;2022-12-18T08:03:19;42.42;;;33.60;;
12798;SDS011;19250;42.646;26.980;2022-12-18T08:05:46;29.40;;;24.30;;
12798;SDS011;19250;42.646;26.980;2022-12-18T08:08:14;64.22;;;52.97;;
12798;SDS011;19250;42.646;26.980;2022-12-18T08:10:41;44.22;;;34.08;;
12798;SDS011;19250;42.646;26.980;2022-12-18T08:13:08;37.63;;;29.37;;
12798;SDS011;19250;42.646;26.980;2022-12-18T08:15:35;18.00;;;15.43;;
12798;SDS011;19250;42.646;26.980;2022-12-18T08:18:04;21.20;;;18.15;;
12798;SDS011;19250;42.646;26.980;2022-12-18T08:20:31;24.35;;;19.63;;
12798;SDS011;19250;42.646;26.980;2022-12-18T08:22:58;23.05;;;18.85;;
12798;SDS011;19250;42.646;26.980;2022-12-18T08:25:26;20.77;;;16.00;;
12798;SDS011;19250;42.646;26.980;2022-12-18T08:27:53;15.50;;;13.10;;
12798;SDS011;19250;42.646;26.980;2022-12-18T08:30:21;15.07;;;12.80;;
12798;SDS011;19250;42.646;26.980;2022-12-18T08:32:50;17.77;;;14.35;;
12798;SDS011;19250;42.646;26.980;2022-12-18T08:35:19;16.45;;;13.32;;
12798;SDS011;19250;42.646;26.980;2022-12-18T08:37:46;14.88;;;13.00;;
12798;SDS011;19250;42.646;26.980;2022-12-18T08:40:14;16.92;;;14.85;;
12798;SDS011;19250;42.646;26.980;2022-12-18T08:42:41;17.60;;;14.63;;
12798;SDS011;19250;42.646;26.980;2022-12-18T08:45:25;16.73;;;14.68;;
12798;SDS011;19250;42.646;26.980;2022-12-18T08:47:53;17.05;;;14.73;;
12798;SDS011;19250;42.646;26.980;2022-12-18T08:50:22;15.70;;;14.02;;
12798;SDS011;19250;42.646;26.980;2022-12-18T08:52:49;14.85;;;13.27;;
12798;SDS011;19250;42.646;26.980;2022-12-18T08:55:16;13.90;;;12.30;;
12798;SDS011;19250;42.646;26.980;2022-12-18T08:57:43;17.45;;;14.32;;
12798;SDS011;19250;42.646;26.980;2022-12-18T09:00:15;15.67;;;13.97;;
12798;SDS011;19250;42.646;26.980;2022-12-18T09:02:42;19.20;;;16.90;;
12798;SDS011;19250;42.646;26.980;2022-12-18T09:05:10;84.72;;;46.80;;
12798;SDS011;19250;42.646;26.980;2022-12-18T09:07:38;22.27;;;18.10;;
12798;SDS011;19250;42.646;26.980;2022-12-18T09:10:06;12.48;;;10.07;;
12798;SDS011;19250;42.646;26.980;2022-12-18T09:12:33;13.35;;;10.52;;
12798;SDS011;19250;42.646;26.980;2022-12-18T09:15:01;12.95;;;11.73;;
12798;SDS011;19250;42.646;26.980;2022-12-18T09:17:28;10.75;;;8.90;;
12798;SDS011;19250;42.646;26.980;2022-12-18T09:19:55;13.13;;;11.73;;
12798;SDS011;19250;42.646;26.980;2022-12-18T09:22:22;33.05;;;26.10;;
12798;SDS011;19250;42.646;26.980;2022-12-18T09:24:51;20.08;;;16.70;;
12798;SDS011;19250;42.646;26.980;2022-12-18T09:27:19;11.77;;;9.95;;
12798;SDS011;19250;42.646;26.980;2022-12-18T09:29:46;19.42;;;17.33;;
12798;SDS011;19250;42.646;26.980;2022-12-18T09:32:13;13.75;;;12.32;;
12798;SDS011;19250;42.646;26.980;2022-12-18T09:34:40;17.20;;;15.35;;
12798;SDS011;19250;42.646;26.980;2022-12-18T09:37:07;13.80;;;11.63;;
12798;SDS011;19250;42.646;26.980;2022-12-18T09:39:35;11.18;;;9.98;;
12798;SDS011;19250;42.646;26.980;2022-12-18T09:42:04;12.43;;;10.48;;
12798;SDS011;19250;42.646;26.980;2022-12-18T09:44:32;15.85;;;13.95;;
12798;SDS011;19250;42.646;26.980;2022-12-18T09:47:07;13.73;;;11.82;;
12798;SDS011;19250;42.646;26.980;2022-12-18T09:49:39;16.17;;;13.82;;
12798;SDS011;19250;42.646;26.980;2022-12-18T09:52:09;13.95;;;12.30;;
12798;SDS011;19250;42.646;26.980;2022-12-18T09:54:43;14.65;;;13.13;;
12798;SDS011;19250;42.646;26.980;2022-12-18T09:57:15;64.80;;;45.45;;
12798;SDS011;19250;42.646;26.980;2022-12-18T09:59:46;47.78;;;31.85;;
12798;SDS011;19250;42.646;26.980;2022-12-18T10:02:20;21.95;;;17.30;;
12798;SDS011;19250;42.646;26.980;2022-12-18T10:04:51;16.10;;;14.40;;
12798;SDS011;19250;42.646;26.980;2022-12-18T10:07:29;21.95;;;19.65;;
12798;SDS011;19250;42.646;26.980;2022-12-18T10:10:04;41.67;;;34.00;;
12798;SDS011;19250;42.646;26.980;2022-12-18T10:12:38;22.67;;;20.65;;
12798;SDS011;19250;42.646;26.980;2022-12-18T10:15:13;23.05;;;20.55;;
12798;SDS011;19250;42.646;26.980;2022-12-18T10:17:50;22.90;;;20.60;;
12798;SDS011;19250;42.646;26.980;2022-12-18T10:20:27;21.92;;;19.88;;
12798;SDS011;19250;42.646;26.980;2022-12-18T10:23:01;29.23;;;26.38;;
12798;SDS011;19250;42.646;26.980;2022-12-18T10:25:37;26.80;;;23.90;;
12798;SDS011;19250;42.646;26.980;2022-12-18T10:28:14;31.70;;;27.75;;
12798;SDS011;19250;42.646;26.980;2022-12-18T10:30:43;30.80;;;27.27;;
12798;SDS011;19250;42.646;26.980;2022-12-18T10:33:11;33.80;;;30.15;;
12798;SDS011;19250;42.646;26.980;2022-12-18T10:35:40;32.97;;;29.45;;
12798;SDS011;19250;42.646;26.980;2022-12-18T10:38:20;40.67;;;36.27;;
12798;SDS011;19250;42.646;26.980;2022-12-18T10:40:50;26.83;;;21.98;;
12798;SDS011;19250;42.646;26.980;2022-12-18T10:43:22;23.00;;;20.05;;
12798;SDS011;19250;42.646;26.980;2022-12-18T10:46:00;28.40;;;23.52;;
12798;SDS011;19250;42.646;26.980;2022-12-18T10:48:40;27.02;;;24.38;;
12798;SDS011;19250;42.646;26.980;2022-12-18T10:51:19;19.20;;;16.17;;
12798;SDS011;19250;42.646;26.980;2022-12-18T10:53:54;22.73;;;19.67;;
12798;SDS011;19250;42.646;26.980;2022-12-18T10:56:24;25.30;;;21.40;;
12798;SDS011;19250;42.646;26.980;2022-12-18T10:58:59;35.47;;;31.67;;
12798;SDS011;19250;42.646;26.980;2022-12-18T11:01:32;32.70;;;29.17;;
12798;SDS011;19250;42.646;26.980;2022-12-18T11:04:15;39.30;;;33.72;;
12798;SDS011;19250;42.646;26.980;2022-12-18T11:06:52;49.88;;;39.55;;
12798;SDS011;19250;42.646;26.980;2022-12-18T11:09:22;28.15;;;23.20;;
12798;SDS011;19250;42.646;26.980;2022-12-18T11:11:50;51.83;;;39.22;;
12798;SDS011;19250;42.646;26.980;2022-12-18T11:14:21;37.03;;;31.70;;
12798;SDS011;19250;42.646;26.980;2022-12-18T11:16:50;43.28;;;36.80;;
12798;SDS011;19250;42.646;26.980;2022-12-18T11:19:21;43.47;;;38.87;;
12798;SDS011;19250;42.646;26.980;2022-12-18T11:21:58;51.60;;;40.85;;
12798;SDS011;19250;42.646;26.980;2022-12-18T11:24:27;61.92;;;42.13;;
12798;SDS011;19250;42.646;26.980;2022-12-18T11:26:57;93.70;;;59.07;;
12798;SDS011;19250;42.646;26.980;2022-12-18T11:29:31;87.53;;;57.15;;
12798;SDS011;19250;42.646;26.980;2022-12-18T11:32:19;61.42;;;40.85;;
12798;SDS011;19250;42.646;26.980;2022-12-18T11:34:54;67.40;;;40.55;;
12798;SDS011;19250;42.646;26.980;2022-12-18T11:37:26;7.60;;;3.70;;
12798;SDS011;19250;42.646;26.980;2022-12-18T11:39:55;2.35;;;2.15;;
12798;SDS011;19250;42.646;26.980;2022-12-18T11:42:27;5.45;;;5.10;;
12798;SDS011;19250;42.646;26.980;2022-12-18T11:45:07;2.13;;;1.75;;
12798;SDS011;19250;42.646;26.980;2022-12-18T11:47:54;0.20;;;0.20;;
12798;SDS011;19250;42.646;26.980;2022-12-18T11:50:26;1.27;;;1.27;;
12798;SDS011;19250;42.646;26.980;2022-12-18T11:52:58;1.00;;;0.88;;
12798;SDS011;19250;42.646;26.980;2022-12-18T11:55:28;1.00;;;0.90;;
12798;SDS011;19250;42.646;26.980;2022-12-18T11:58:04;2.80;;;2.70;;
12798;SDS011;19250;42.646;26.980;2022-12-18T12:00:43;0.35;;;0.35;;
12798;SDS011;19250;42.646;26.980;2022-12-18T12:03:21;2.55;;;2.05;;
12798;SDS011;19250;42.646;26.980;2022-12-18T12:06:05;0.50;;;0.50;;
12798;SDS011;19250;42.646;26.980;2022-12-18T12:08:40;0.20;;;0.20;;
12798;SDS011;19250;42.646;26.980;2022-12-18T12:11:20;0.57;;;0.57;;
12798;SDS011;19250;42.646;26.980;2022-12-18T12:13:55;4.50;;;4.20;;
12798;SDS011;19250;42.646;26.980;2022-12-18T12:16:37;0.32;;;0.32;;
12798;SDS011;19250;42.646;26.980;2022-12-18T12:19:19;0.05;;;0.05;;
12798;SDS011;19250;42.646;26.980;2022-12-18T12:22:03;0.70;;;0.70;;
12798;SDS011;19250;42.646;26.980;2022-12-18T12:24:42;0.15;;;0.15;;
12798;SDS011;19250;42.646;26.980;2022-12-18T12:27:18;3.90;;;0.95;;
12798;SDS011;19250;42.646;26.980;2022-12-18T12:29:56;0.70;;;0.70;;
12798;SDS011;19250;42.646;26.980;2022-12-18T12:32:34;0.90;;;0.90;;
12798;SDS011;19250;42.646;26.980;2022-12-18T12:35:15;0.77;;;0.77;;
12798;SDS011;19250;42.646;26.980;2022-12-18T12:37:55;0.85;;;0.77;;
12798;SDS011;19250;42.646;26.980;2022-12-18T12:40:33;0.98;;;0.98;;
12798;SDS011;19250;42.646;26.980;2022-12-18T12:43:03;0.40;;;0.40;;
12798;SDS011;19250;42.646;26.980;2022-12-18T12:45:42;5.05;;;2.97;;
12798;SDS011;19250;42.646;26.980;2022-12-18T12:48:17;7.70;;;4.10;;
12798;SDS011;19250;42.646;26.980;2022-12-18T12:50:50;0.20;;;0.20;;
12798;SDS011;19250;42.646;26.980;2022-12-18T12:53:22;0.50;;;0.50;;
12798;SDS011;19250;42.646;26.980;2022-12-18T12:55:53;2.65;;;2.55;;
12798;SDS011;19250;42.646;26.980;2022-12-18T12:58:25;2.40;;;2.20;;
12798;SDS011;19250;42.646;26.980;2022-12-18T13:01:01;10.50;;;5.40;;
12798;SDS011;19250;42.646;26.980;2022-12-18T13:03:41;1.50;;;1.40;;
12798;SDS011;19250;42.646;26.980;2022-12-18T13:06:16;0.80;;;0.77;;
12798;SDS011;19250;42.646;26.980;2022-12-18T13:08:52;0.50;;;0.50;;
12798;SDS011;19250;42.646;26.980;2022-12-18T13:11:31;2.20;;;2.10;;
12798;SDS011;19250;42.646;26.980;2022-12-18T13:14:24;6.20;;;5.70;;
12798;SDS011;19250;42.646;26.980;2022-12-18T13:20:09;0.10;;;0.10;;
12798;SDS011;19250;42.646;26.980;2022-12-18T13:22:40;0.13;;;0.13;;
12798;SDS011;19250;42.646;26.980;2022-12-18T13:28:00;0.30;;;0.30;;
12798;SDS011;19250;42.646;26.980;2022-12-18T13:36:27;0.50;;;0.50;;
12798;SDS011;19250;42.646;26.980;2022-12-18T13:39:09;2.35;;;1.83;;
12798;SDS011;19250;42.646;26.980;2022-12-18T13:41:48;0.90;;;0.90;;
12798;SDS011;19250;42.646;26.980;2022-12-18T13:44:22;2.10;;;2.10;;
12798;SDS011;19250;42.646;26.980;2022-12-18T13:46:52;0.57;;;0.57;;
12798;SDS011;19250;42.646;26.980;2022-12-18T13:49:21;0.10;;;0.10;;
12798;SDS011;19250;42.646;26.980;2022-12-18T13:51:54;0.55;;;0.55;;
12798;SDS011;19250;42.646;26.980;2022-12-18T13:54:24;0.68;;;0.65;;
12798;SDS011;19250;42.646;26.980;2022-12-18T13:56:55;0.50;;;0.50;;
12798;SDS011;19250;42.646;26.980;2022-12-18T13:59:23;0.22;;;0.22;;
12798;SDS011;19250;42.646;26.980;2022-12-18T14:01:53;1.00;;;1.00;;
12798;SDS011;19250;42.646;26.980;2022-12-18T14:04:23;0.50;;;0.50;;
12798;SDS011;19250;42.646;26.980;2022-12-18T14:06:57;4.40;;;3.22;;
12798;SDS011;19250;42.646;26.980;2022-12-18T14:09:28;0.10;;;0.10;;
12798;SDS011;19250;42.646;26.980;2022-12-18T14:11:57;1.08;;;1.08;;
12798;SDS011;19250;42.646;26.980;2022-12-18T14:14:44;0.10;;;0.10;;
12798;SDS011;19250;42.646;26.980;2022-12-18T14:17:14;1.80;;;1.80;;
12798;SDS011;19250;42.646;26.980;2022-12-18T14:19:43;0.30;;;0.30;;
12798;SDS011;19250;42.646;26.980;2022-12-18T14:22:18;2.30;;;2.20;;
12798;SDS011;19250;42.646;26.980;2022-12-18T14:24:46;1.02;;;1.02;;
12798;SDS011;19250;42.646;26.980;2022-12-18T14:27:25;0.73;;;0.73;;
12798;SDS011;19250;42.646;26.980;2022-12-18T14:29:52;0.80;;;0.80;;
12798;SDS011;19250;42.646;26.980;2022-12-18T14:32:20;2.40;;;1.20;;
12798;SDS011;19250;42.646;26.980;2022-12-18T14:34:48;1.90;;;1.80;;
12798;SDS011;19250;42.646;26.980;2022-12-18T14:37:18;3.83;;;2.25;;
12798;SDS011;19250;42.646;26.980;2022-12-18T14:39:54;2.10;;;1.20;;
12798;SDS011;19250;42.646;26.980;2022-12-18T14:42:23;6.50;;;6.00;;
12798;SDS011;19250;42.646;26.980;2022-12-18T14:47:54;6.10;;;4.20;;
12798;SDS011;19250;42.646;26.980;2022-12-18T14:50:21;2.63;;;2.53;;
12798;SDS011;19250;42.646;26.980;2022-12-18T14:52:50;0.90;;;0.90;;
12798;SDS011;19250;42.646;26.980;2022-12-18T14:55:18;2.20;;;1.60;;
12798;SDS011;19250;42.646;26.980;2022-12-18T14:57:48;4.43;;;2.00;;
12798;SDS011;19250;42.646;26.980;2022-12-18T15:00:19;1.05;;;1.05;;